sensor_id;sensor_type;location;lat;lon;timestamp;P1;durP1;ratioP1;P2;durP2;ratioP2
48076;SDS011;33854;57.708;12.008;2023-01-31T00:00:20;5.37;;;0.97;;
48076;SDS011;33854;57.708;12.008;2023-01-31T00:02:46;6.63;;;1.10;;
48076;SDS011;33854;57.708;12.008;2023-01-31T00:05:11;3.87;;;0.83;;
48076;SDS011;33854;57.708;12.008;2023-01-31T00:07:37;8.10;;;1.00;;
48076;SDS011;33854;57.708;12.008;2023-01-31T00:10:02;9.90;;;1.13;;
48076;SDS011;33854;57.708;12.008;2023-01-31T00:12:28;5.90;;;1.30;;
48076;SDS011;33854;57.708;12.008;2023-01-31T00:14:53;9.87;;;1.60;;
48076;SDS011;33854;57.708;12.008;2023-01-31T00:17:19;7.53;;;0.97;;
48076;SDS011;33854;57.708;12.008;2023-01-31T00:19:44;13.50;;;0.90;;
48076;SDS011;33854;57.708;12.008;2023-01-31T00:22:10;8.53;;;1.67;;
48076;SDS011;33854;57.708;12.008;2023-01-31T00:24:35;6.13;;;0.70;;
48076;SDS011;33854;57.708;12.008;2023-01-31T00:27:00;7.93;;;1.00;;
48076;SDS011;33854;57.708;12.008;2023-01-31T00:29:26;8.00;;;1.00;;
48076;SDS011;33854;57.708;12.008;2023-01-31T00:31:51;4.97;;;1.10;;
48076;SDS011;33854;57.708;12.008;2023-01-31T00:34:17;8.93;;;1.67;;
48076;SDS011;33854;57.708;12.008;2023-01-31T00:36:42;7.17;;;0.70;;
48076;SDS011;33854;57.708;12.008;2023-01-31T00:39:08;6.47;;;0.80;;
48076;SDS011;33854;57.708;12.008;2023-01-31T00:41:36;6.38;;;0.60;;
48076;SDS011;33854;57.708;12.008;2023-01-31T00:44:02;4.03;;;0.40;;
48076;SDS011;33854;57.708;12.008;2023-01-31T00:48:55;5.60;;;0.60;;
48076;SDS011;33854;57.708;12.008;2023-01-31T00:51:21;5.25;;;0.73;;
48076;SDS011;33854;57.708;12.008;2023-01-31T00:53:48;4.63;;;0.60;;
48076;SDS011;33854;57.708;12.008;2023-01-31T00:58:41;7.43;;;0.77;;
48076;SDS011;33854;57.708;12.008;2023-01-31T01:01:08;5.10;;;0.60;;
48076;SDS011;33854;57.708;12.008;2023-01-31T01:03:35;10.05;;;0.95;;
48076;SDS011;33854;57.708;12.008;2023-01-31T01:06:02;5.93;;;0.75;;
48076;SDS011;33854;57.708;12.008;2023-01-31T01:08:28;3.33;;;0.50;;
48076;SDS011;33854;57.708;12.008;2023-01-31T01:10:53;6.30;;;0.80;;
48076;SDS011;33854;57.708;12.008;2023-01-31T01:13:19;5.70;;;0.53;;
48076;SDS011;33854;57.708;12.008;2023-01-31T01:15:44;5.63;;;0.83;;
48076;SDS011;33854;57.708;12.008;2023-01-31T01:18:10;3.63;;;0.60;;
48076;SDS011;33854;57.708;12.008;2023-01-31T01:20:35;5.00;;;1.00;;
48076;SDS011;33854;57.708;12.008;2023-01-31T01:23:01;6.73;;;0.90;;
48076;SDS011;33854;57.708;12.008;2023-01-31T01:25:26;5.37;;;0.80;;
48076;SDS011;33854;57.708;12.008;2023-01-31T01:27:52;5.03;;;0.63;;
48076;SDS011;33854;57.708;12.008;2023-01-31T01:30:17;7.87;;;1.00;;
48076;SDS011;33854;57.708;12.008;2023-01-31T01:32:44;4.18;;;0.80;;
48076;SDS011;33854;57.708;12.008;2023-01-31T01:35:10;4.65;;;0.88;;
48076;SDS011;33854;57.708;12.008;2023-01-31T01:37:36;5.90;;;0.70;;
48076;SDS011;33854;57.708;12.008;2023-01-31T01:40:01;7.57;;;0.70;;
48076;SDS011;33854;57.708;12.008;2023-01-31T01:42:28;4.93;;;0.50;;
48076;SDS011;33854;57.708;12.008;2023-01-31T01:44:59;2.78;;;0.50;;
48076;SDS011;33854;57.708;12.008;2023-01-31T01:50:11;8.65;;;1.02;;
48076;SDS011;33854;57.708;12.008;2023-01-31T01:52:51;3.72;;;0.60;;
48076;SDS011;33854;57.708;12.008;2023-01-31T01:58:18;6.13;;;0.85;;
48076;SDS011;33854;57.708;12.008;2023-01-31T02:00:48;7.10;;;0.55;;
48076;SDS011;33854;57.708;12.008;2023-01-31T02:03:15;7.55;;;0.63;;
48076;SDS011;33854;57.708;12.008;2023-01-31T02:05:42;5.50;;;0.82;;
48076;SDS011;33854;57.708;12.008;2023-01-31T02:08:11;6.60;;;0.80;;
48076;SDS011;33854;57.708;12.008;2023-01-31T02:13:25;3.90;;;0.50;;
48076;SDS011;33854;57.708;12.008;2023-01-31T02:18:18;9.87;;;1.40;;
48076;SDS011;33854;57.708;12.008;2023-01-31T02:45:18;4.63;;;1.00;;
48076;SDS011;33854;57.708;12.008;2023-01-31T02:53:14;4.45;;;0.85;;
48076;SDS011;33854;57.708;12.008;2023-01-31T02:55:54;5.72;;;0.98;;
48076;SDS011;33854;57.708;12.008;2023-01-31T02:58:39;8.90;;;0.77;;
48076;SDS011;33854;57.708;12.008;2023-01-31T03:01:09;7.30;;;0.98;;
48076;SDS011;33854;57.708;12.008;2023-01-31T03:03:39;9.80;;;0.82;;
48076;SDS011;33854;57.708;12.008;2023-01-31T03:09:10;4.78;;;0.80;;
48076;SDS011;33854;57.708;12.008;2023-01-31T03:14:28;8.35;;;0.90;;
48076;SDS011;33854;57.708;12.008;2023-01-31T03:20:10;9.48;;;0.82;;
48076;SDS011;33854;57.708;12.008;2023-01-31T03:22:52;4.82;;;0.50;;
48076;SDS011;33854;57.708;12.008;2023-01-31T03:25:33;5.55;;;1.08;;
48076;SDS011;33854;57.708;12.008;2023-01-31T03:28:02;5.68;;;0.68;;
48076;SDS011;33854;57.708;12.008;2023-01-31T03:33:21;3.83;;;1.20;;
48076;SDS011;33854;57.708;12.008;2023-01-31T03:38:35;14.95;;;1.00;;
48076;SDS011;33854;57.708;12.008;2023-01-31T03:41:23;8.02;;;0.80;;
48076;SDS011;33854;57.708;12.008;2023-01-31T03:44:02;6.60;;;0.80;;
48076;SDS011;33854;57.708;12.008;2023-01-31T03:46:50;7.43;;;0.73;;
48076;SDS011;33854;57.708;12.008;2023-01-31T03:49:23;4.18;;;0.43;;
48076;SDS011;33854;57.708;12.008;2023-01-31T03:51:52;5.82;;;0.63;;
48076;SDS011;33854;57.708;12.008;2023-01-31T03:54:24;6.10;;;0.80;;
48076;SDS011;33854;57.708;12.008;2023-01-31T03:59:24;5.15;;;0.75;;
48076;SDS011;33854;57.708;12.008;2023-01-31T04:01:54;7.97;;;0.50;;
48076;SDS011;33854;57.708;12.008;2023-01-31T04:04:24;8.70;;;1.17;;
48076;SDS011;33854;57.708;12.008;2023-01-31T04:06:54;3.53;;;0.70;;
48076;SDS011;33854;57.708;12.008;2023-01-31T04:09:20;4.87;;;0.40;;
48076;SDS011;33854;57.708;12.008;2023-01-31T04:11:46;7.87;;;1.10;;
48076;SDS011;33854;57.708;12.008;2023-01-31T04:14:15;7.85;;;0.70;;
48076;SDS011;33854;57.708;12.008;2023-01-31T04:16:40;6.27;;;0.50;;
48076;SDS011;33854;57.708;12.008;2023-01-31T04:19:06;11.07;;;0.90;;
48076;SDS011;33854;57.708;12.008;2023-01-31T04:21:31;2.10;;;0.50;;
48076;SDS011;33854;57.708;12.008;2023-01-31T04:23:57;2.50;;;0.97;;
48076;SDS011;33854;57.708;12.008;2023-01-31T04:26:22;3.50;;;0.57;;
48076;SDS011;33854;57.708;12.008;2023-01-31T04:28:47;4.47;;;0.67;;
48076;SDS011;33854;57.708;12.008;2023-01-31T04:31:13;7.80;;;0.67;;
48076;SDS011;33854;57.708;12.008;2023-01-31T04:33:39;4.43;;;0.77;;
48076;SDS011;33854;57.708;12.008;2023-01-31T04:36:04;7.87;;;0.90;;
48076;SDS011;33854;57.708;12.008;2023-01-31T04:38:30;5.43;;;0.60;;
48076;SDS011;33854;57.708;12.008;2023-01-31T04:40:55;9.67;;;0.90;;
48076;SDS011;33854;57.708;12.008;2023-01-31T04:43:21;11.27;;;1.07;;
48076;SDS011;33854;57.708;12.008;2023-01-31T04:45:46;14.07;;;0.93;;
48076;SDS011;33854;57.708;12.008;2023-01-31T04:48:11;7.77;;;0.80;;
48076;SDS011;33854;57.708;12.008;2023-01-31T04:50:37;5.47;;;0.90;;
48076;SDS011;33854;57.708;12.008;2023-01-31T04:53:03;7.07;;;0.80;;
48076;SDS011;33854;57.708;12.008;2023-01-31T04:55:28;6.20;;;0.87;;
48076;SDS011;33854;57.708;12.008;2023-01-31T04:57:54;6.67;;;0.73;;
48076;SDS011;33854;57.708;12.008;2023-01-31T05:00:20;8.07;;;1.00;;
48076;SDS011;33854;57.708;12.008;2023-01-31T05:02:45;7.73;;;0.80;;
48076;SDS011;33854;57.708;12.008;2023-01-31T05:05:11;8.70;;;1.07;;
48076;SDS011;33854;57.708;12.008;2023-01-31T05:07:39;8.18;;;0.95;;
48076;SDS011;33854;57.708;12.008;2023-01-31T05:10:05;7.33;;;0.67;;
48076;SDS011;33854;57.708;12.008;2023-01-31T05:12:31;22.98;;;3.72;;
48076;SDS011;33854;57.708;12.008;2023-01-31T05:14:56;9.83;;;1.07;;
48076;SDS011;33854;57.708;12.008;2023-01-31T05:17:22;8.17;;;0.50;;
48076;SDS011;33854;57.708;12.008;2023-01-31T05:19:50;9.07;;;1.27;;
48076;SDS011;33854;57.708;12.008;2023-01-31T05:22:15;7.40;;;0.97;;
48076;SDS011;33854;57.708;12.008;2023-01-31T05:24:41;10.68;;;1.40;;
48076;SDS011;33854;57.708;12.008;2023-01-31T05:27:07;8.50;;;0.83;;
48076;SDS011;33854;57.708;12.008;2023-01-31T05:29:34;7.03;;;0.80;;
48076;SDS011;33854;57.708;12.008;2023-01-31T05:32:00;13.80;;;0.97;;
48076;SDS011;33854;57.708;12.008;2023-01-31T05:36:54;10.40;;;1.10;;
48076;SDS011;33854;57.708;12.008;2023-01-31T05:39:20;5.10;;;0.90;;
48076;SDS011;33854;57.708;12.008;2023-01-31T05:41:46;10.15;;;1.15;;
48076;SDS011;33854;57.708;12.008;2023-01-31T05:44:12;1.83;;;0.40;;
48076;SDS011;33854;57.708;12.008;2023-01-31T05:46:38;10.90;;;0.93;;
48076;SDS011;33854;57.708;12.008;2023-01-31T05:49:04;7.17;;;0.60;;
48076;SDS011;33854;57.708;12.008;2023-01-31T05:51:30;6.55;;;0.77;;
48076;SDS011;33854;57.708;12.008;2023-01-31T05:53:55;9.07;;;1.20;;
48076;SDS011;33854;57.708;12.008;2023-01-31T05:56:21;13.30;;;1.10;;
48076;SDS011;33854;57.708;12.008;2023-01-31T05:58:47;10.65;;;0.80;;
48076;SDS011;33854;57.708;12.008;2023-01-31T06:01:17;8.00;;;0.75;;
48076;SDS011;33854;57.708;12.008;2023-01-31T06:03:44;13.65;;;1.27;;
48076;SDS011;33854;57.708;12.008;2023-01-31T06:06:10;11.32;;;1.40;;
48076;SDS011;33854;57.708;12.008;2023-01-31T06:08:35;10.53;;;1.87;;
48076;SDS011;33854;57.708;12.008;2023-01-31T06:11:01;8.50;;;1.20;;
48076;SDS011;33854;57.708;12.008;2023-01-31T06:13:31;12.23;;;1.15;;
48076;SDS011;33854;57.708;12.008;2023-01-31T06:15:56;7.55;;;0.90;;
48076;SDS011;33854;57.708;12.008;2023-01-31T06:18:22;11.17;;;0.97;;
48076;SDS011;33854;57.708;12.008;2023-01-31T06:20:48;7.80;;;1.30;;
48076;SDS011;33854;57.708;12.008;2023-01-31T06:23:13;11.47;;;2.03;;
48076;SDS011;33854;57.708;12.008;2023-01-31T06:25:39;7.40;;;1.00;;
48076;SDS011;33854;57.708;12.008;2023-01-31T06:28:04;13.03;;;1.07;;
48076;SDS011;33854;57.708;12.008;2023-01-31T06:30:30;8.20;;;0.90;;
48076;SDS011;33854;57.708;12.008;2023-01-31T06:32:58;7.78;;;0.80;;
48076;SDS011;33854;57.708;12.008;2023-01-31T06:35:24;8.35;;;1.00;;
48076;SDS011;33854;57.708;12.008;2023-01-31T06:37:50;6.47;;;1.00;;
48076;SDS011;33854;57.708;12.008;2023-01-31T06:40:15;5.40;;;0.77;;
48076;SDS011;33854;57.708;12.008;2023-01-31T06:42:41;4.07;;;0.63;;
48076;SDS011;33854;57.708;12.008;2023-01-31T06:45:06;10.13;;;1.47;;
48076;SDS011;33854;57.708;12.008;2023-01-31T06:47:32;4.60;;;0.85;;
48076;SDS011;33854;57.708;12.008;2023-01-31T06:49:58;9.10;;;1.00;;
48076;SDS011;33854;57.708;12.008;2023-01-31T06:52:24;8.57;;;1.10;;
48076;SDS011;33854;57.708;12.008;2023-01-31T06:54:49;9.83;;;0.93;;
48076;SDS011;33854;57.708;12.008;2023-01-31T06:57:14;6.97;;;0.93;;
48076;SDS011;33854;57.708;12.008;2023-01-31T06:59:40;8.63;;;2.20;;
48076;SDS011;33854;57.708;12.008;2023-01-31T07:02:05;11.43;;;1.03;;
48076;SDS011;33854;57.708;12.008;2023-01-31T07:04:31;12.60;;;1.17;;
48076;SDS011;33854;57.708;12.008;2023-01-31T07:06:56;6.07;;;0.80;;
48076;SDS011;33854;57.708;12.008;2023-01-31T07:09:22;9.70;;;0.98;;
48076;SDS011;33854;57.708;12.008;2023-01-31T07:11:47;10.00;;;0.97;;
48076;SDS011;33854;57.708;12.008;2023-01-31T07:14:13;17.33;;;1.50;;
48076;SDS011;33854;57.708;12.008;2023-01-31T07:16:38;11.20;;;1.00;;
48076;SDS011;33854;57.708;12.008;2023-01-31T07:19:04;16.00;;;1.20;;
48076;SDS011;33854;57.708;12.008;2023-01-31T07:21:29;10.57;;;1.20;;
48076;SDS011;33854;57.708;12.008;2023-01-31T07:23:55;10.03;;;1.67;;
48076;SDS011;33854;57.708;12.008;2023-01-31T07:26:20;8.13;;;1.70;;
48076;SDS011;33854;57.708;12.008;2023-01-31T07:28:46;10.27;;;0.83;;
48076;SDS011;33854;57.708;12.008;2023-01-31T07:31:12;6.80;;;1.07;;
48076;SDS011;33854;57.708;12.008;2023-01-31T07:33:38;8.77;;;1.10;;
48076;SDS011;33854;57.708;12.008;2023-01-31T07:36:05;6.30;;;1.02;;
48076;SDS011;33854;57.708;12.008;2023-01-31T07:38:32;7.90;;;1.40;;
48076;SDS011;33854;57.708;12.008;2023-01-31T07:40:58;8.93;;;1.23;;
48076;SDS011;33854;57.708;12.008;2023-01-31T07:45:51;6.40;;;0.70;;
48076;SDS011;33854;57.708;12.008;2023-01-31T07:48:16;8.80;;;1.20;;
48076;SDS011;33854;57.708;12.008;2023-01-31T07:50:47;9.00;;;1.00;;
48076;SDS011;33854;57.708;12.008;2023-01-31T07:53:16;8.98;;;1.00;;
48076;SDS011;33854;57.708;12.008;2023-01-31T07:55:42;12.73;;;1.30;;
48076;SDS011;33854;57.708;12.008;2023-01-31T07:58:11;11.50;;;1.20;;
48076;SDS011;33854;57.708;12.008;2023-01-31T08:03:26;7.63;;;0.80;;
48076;SDS011;33854;57.708;12.008;2023-01-31T08:06:06;12.45;;;1.98;;
48076;SDS011;33854;57.708;12.008;2023-01-31T08:08:36;8.52;;;1.08;;
48076;SDS011;33854;57.708;12.008;2023-01-31T08:11:02;9.05;;;1.10;;
48076;SDS011;33854;57.708;12.008;2023-01-31T08:13:34;12.38;;;0.95;;
48076;SDS011;33854;57.708;12.008;2023-01-31T08:16:00;8.30;;;0.85;;
48076;SDS011;33854;57.708;12.008;2023-01-31T08:18:26;16.15;;;1.90;;
48076;SDS011;33854;57.708;12.008;2023-01-31T08:20:52;9.67;;;1.60;;
48076;SDS011;33854;57.708;12.008;2023-01-31T08:23:18;11.98;;;1.33;;
48076;SDS011;33854;57.708;12.008;2023-01-31T08:25:43;8.47;;;0.73;;
48076;SDS011;33854;57.708;12.008;2023-01-31T08:28:09;9.83;;;1.00;;
48076;SDS011;33854;57.708;12.008;2023-01-31T08:30:39;8.23;;;1.20;;
48076;SDS011;33854;57.708;12.008;2023-01-31T08:33:08;7.55;;;1.05;;
48076;SDS011;33854;57.708;12.008;2023-01-31T08:35:36;6.60;;;0.85;;
48076;SDS011;33854;57.708;12.008;2023-01-31T08:38:02;10.60;;;0.98;;
48076;SDS011;33854;57.708;12.008;2023-01-31T08:40:28;8.20;;;1.00;;
48076;SDS011;33854;57.708;12.008;2023-01-31T08:42:54;13.63;;;1.30;;
48076;SDS011;33854;57.708;12.008;2023-01-31T08:45:20;9.65;;;0.93;;
48076;SDS011;33854;57.708;12.008;2023-01-31T08:47:46;12.77;;;1.23;;
48076;SDS011;33854;57.708;12.008;2023-01-31T08:50:11;15.83;;;1.23;;
48076;SDS011;33854;57.708;12.008;2023-01-31T08:52:37;8.17;;;1.13;;
48076;SDS011;33854;57.708;12.008;2023-01-31T08:55:02;11.50;;;1.93;;
48076;SDS011;33854;57.708;12.008;2023-01-31T08:57:30;14.27;;;1.95;;
48076;SDS011;33854;57.708;12.008;2023-01-31T08:59:55;14.23;;;2.40;;
48076;SDS011;33854;57.708;12.008;2023-01-31T09:02:21;8.83;;;1.60;;
48076;SDS011;33854;57.708;12.008;2023-01-31T09:04:46;14.70;;;1.67;;
48076;SDS011;33854;57.708;12.008;2023-01-31T09:07:13;12.20;;;1.67;;
48076;SDS011;33854;57.708;12.008;2023-01-31T09:09:39;14.13;;;1.53;;
48076;SDS011;33854;57.708;12.008;2023-01-31T09:12:04;15.03;;;1.83;;
48076;SDS011;33854;57.708;12.008;2023-01-31T09:14:30;14.57;;;1.60;;
48076;SDS011;33854;57.708;12.008;2023-01-31T09:16:55;16.03;;;2.37;;
48076;SDS011;33854;57.708;12.008;2023-01-31T09:19:21;19.63;;;1.93;;
48076;SDS011;33854;57.708;12.008;2023-01-31T09:21:47;8.77;;;1.35;;
48076;SDS011;33854;57.708;12.008;2023-01-31T09:24:13;12.93;;;1.87;;
48076;SDS011;33854;57.708;12.008;2023-01-31T09:26:38;18.40;;;1.87;;
48076;SDS011;33854;57.708;12.008;2023-01-31T09:29:04;16.73;;;1.77;;
48076;SDS011;33854;57.708;12.008;2023-01-31T09:31:29;13.60;;;3.03;;
48076;SDS011;33854;57.708;12.008;2023-01-31T09:33:55;14.43;;;2.00;;
48076;SDS011;33854;57.708;12.008;2023-01-31T09:36:21;9.70;;;2.13;;
48076;SDS011;33854;57.708;12.008;2023-01-31T09:38:51;14.45;;;2.55;;
48076;SDS011;33854;57.708;12.008;2023-01-31T09:41:22;12.07;;;1.77;;
48076;SDS011;33854;57.708;12.008;2023-01-31T09:43:55;13.82;;;1.67;;
48076;SDS011;33854;57.708;12.008;2023-01-31T09:52:27;9.38;;;1.75;;
48076;SDS011;33854;57.708;12.008;2023-01-31T09:54:55;13.48;;;2.00;;
48076;SDS011;33854;57.708;12.008;2023-01-31T10:11:31;15.07;;;1.40;;
48076;SDS011;33854;57.708;12.008;2023-01-31T10:14:24;12.50;;;0.98;;
48076;SDS011;33854;57.708;12.008;2023-01-31T10:19:27;10.57;;;1.37;;
48076;SDS011;33854;57.708;12.008;2023-01-31T10:21:58;8.98;;;1.73;;
48076;SDS011;33854;57.708;12.008;2023-01-31T10:24:35;17.55;;;1.80;;
48076;SDS011;33854;57.708;12.008;2023-01-31T10:27:06;9.35;;;1.08;;
48076;SDS011;33854;57.708;12.008;2023-01-31T10:29:47;8.35;;;1.50;;
48076;SDS011;33854;57.708;12.008;2023-01-31T10:32:27;11.75;;;1.83;;
48076;SDS011;33854;57.708;12.008;2023-01-31T10:37:46;10.25;;;1.75;;
48076;SDS011;33854;57.708;12.008;2023-01-31T10:42:57;11.88;;;2.05;;
48076;SDS011;33854;57.708;12.008;2023-01-31T10:45:27;13.82;;;2.28;;
48076;SDS011;33854;57.708;12.008;2023-01-31T10:48:13;14.27;;;2.53;;
48076;SDS011;33854;57.708;12.008;2023-01-31T10:58:34;4.53;;;0.90;;
48076;SDS011;33854;57.708;12.008;2023-01-31T11:01:02;7.97;;;1.27;;
48076;SDS011;33854;57.708;12.008;2023-01-31T11:03:32;10.32;;;0.90;;
48076;SDS011;33854;57.708;12.008;2023-01-31T11:05:58;7.10;;;1.10;;
48076;SDS011;33854;57.708;12.008;2023-01-31T11:08:31;5.83;;;1.27;;
48076;SDS011;33854;57.708;12.008;2023-01-31T11:11:04;7.43;;;0.80;;
48076;SDS011;33854;57.708;12.008;2023-01-31T11:13:32;10.27;;;1.00;;
48076;SDS011;33854;57.708;12.008;2023-01-31T11:15:58;4.70;;;0.77;;
48076;SDS011;33854;57.708;12.008;2023-01-31T11:18:31;7.03;;;1.23;;
48076;SDS011;33854;57.708;12.008;2023-01-31T11:20:59;6.75;;;0.88;;
48076;SDS011;33854;57.708;12.008;2023-01-31T11:23:27;4.60;;;0.82;;
48076;SDS011;33854;57.708;12.008;2023-01-31T11:25:55;5.63;;;1.15;;
48076;SDS011;33854;57.708;12.008;2023-01-31T11:28:23;6.03;;;1.05;;
48076;SDS011;33854;57.708;12.008;2023-01-31T11:30:58;10.38;;;0.88;;
48076;SDS011;33854;57.708;12.008;2023-01-31T11:33:43;5.47;;;0.60;;
48076;SDS011;33854;57.708;12.008;2023-01-31T11:36:16;3.05;;;0.57;;
48076;SDS011;33854;57.708;12.008;2023-01-31T11:38:50;4.32;;;1.50;;
48076;SDS011;33854;57.708;12.008;2023-01-31T11:41:35;3.75;;;0.70;;
48076;SDS011;33854;57.708;12.008;2023-01-31T11:44:20;3.22;;;0.50;;
48076;SDS011;33854;57.708;12.008;2023-01-31T11:46:52;4.72;;;0.65;;
48076;SDS011;33854;57.708;12.008;2023-01-31T11:49:28;8.13;;;0.60;;
48076;SDS011;33854;57.708;12.008;2023-01-31T11:51:58;5.70;;;0.50;;
48076;SDS011;33854;57.708;12.008;2023-01-31T11:54:27;3.55;;;0.40;;
48076;SDS011;33854;57.708;12.008;2023-01-31T11:56:57;4.70;;;0.60;;
48076;SDS011;33854;57.708;12.008;2023-01-31T11:59:25;2.88;;;0.57;;
48076;SDS011;33854;57.708;12.008;2023-01-31T12:01:54;5.97;;;1.35;;
48076;SDS011;33854;57.708;12.008;2023-01-31T12:04:24;5.47;;;0.75;;
48076;SDS011;33854;57.708;12.008;2023-01-31T12:07:01;6.88;;;0.68;;
48076;SDS011;33854;57.708;12.008;2023-01-31T12:09:30;9.00;;;0.73;;
48076;SDS011;33854;57.708;12.008;2023-01-31T12:12:19;4.75;;;0.65;;
48076;SDS011;33854;57.708;12.008;2023-01-31T12:14:51;4.00;;;0.70;;
48076;SDS011;33854;57.708;12.008;2023-01-31T12:17:23;7.35;;;0.75;;
48076;SDS011;33854;57.708;12.008;2023-01-31T12:27:59;5.50;;;0.50;;
48076;SDS011;33854;57.708;12.008;2023-01-31T12:33:39;3.33;;;0.45;;
48076;SDS011;33854;57.708;12.008;2023-01-31T12:42:22;2.55;;;0.20;;
48076;SDS011;33854;57.708;12.008;2023-01-31T12:48:08;2.45;;;0.20;;
48076;SDS011;33854;57.708;12.008;2023-01-31T13:01:47;2.53;;;0.45;;
48076;SDS011;33854;57.708;12.008;2023-01-31T13:07:03;2.72;;;0.60;;
48076;SDS011;33854;57.708;12.008;2023-01-31T13:09:33;6.18;;;0.55;;
48076;SDS011;33854;57.708;12.008;2023-01-31T13:14:38;2.83;;;0.70;;
48076;SDS011;33854;57.708;12.008;2023-01-31T13:17:09;6.55;;;1.02;;
48076;SDS011;33854;57.708;12.008;2023-01-31T13:19:42;5.00;;;1.13;;
48076;SDS011;33854;57.708;12.008;2023-01-31T13:22:11;4.78;;;0.57;;
48076;SDS011;33854;57.708;12.008;2023-01-31T13:24:43;2.03;;;0.85;;
48076;SDS011;33854;57.708;12.008;2023-01-31T13:27:19;3.72;;;0.98;;
48076;SDS011;33854;57.708;12.008;2023-01-31T13:29:59;4.05;;;1.17;;
48076;SDS011;33854;57.708;12.008;2023-01-31T13:35:08;3.08;;;1.30;;
48076;SDS011;33854;57.708;12.008;2023-01-31T13:37:42;3.03;;;0.68;;
48076;SDS011;33854;57.708;12.008;2023-01-31T13:42:46;2.35;;;0.50;;
48076;SDS011;33854;57.708;12.008;2023-01-31T13:45:47;1.83;;;0.80;;
48076;SDS011;33854;57.708;12.008;2023-01-31T13:50:46;5.03;;;1.10;;
48076;SDS011;33854;57.708;12.008;2023-01-31T13:53:27;3.08;;;1.02;;
48076;SDS011;33854;57.708;12.008;2023-01-31T13:55:58;4.15;;;1.20;;
48076;SDS011;33854;57.708;12.008;2023-01-31T13:58:30;5.30;;;1.08;;
48076;SDS011;33854;57.708;12.008;2023-01-31T14:03:26;5.30;;;1.00;;
48076;SDS011;33854;57.708;12.008;2023-01-31T14:05:53;4.10;;;1.00;;
48076;SDS011;33854;57.708;12.008;2023-01-31T14:10:55;3.35;;;1.17;;
48076;SDS011;33854;57.708;12.008;2023-01-31T14:13:27;5.10;;;1.08;;
48076;SDS011;33854;57.708;12.008;2023-01-31T14:16:02;4.90;;;1.17;;
48076;SDS011;33854;57.708;12.008;2023-01-31T14:18:48;2.08;;;1.05;;
48076;SDS011;33854;57.708;12.008;2023-01-31T14:24:01;2.97;;;1.15;;
48076;SDS011;33854;57.708;12.008;2023-01-31T14:29:07;9.15;;;1.92;;
48076;SDS011;33854;57.708;12.008;2023-01-31T14:31:34;13.57;;;1.80;;
48076;SDS011;33854;57.708;12.008;2023-01-31T14:34:01;8.20;;;1.60;;
48076;SDS011;33854;57.708;12.008;2023-01-31T14:57:54;13.05;;;2.55;;
48076;SDS011;33854;57.708;12.008;2023-01-31T15:00:34;14.07;;;3.53;;
48076;SDS011;33854;57.708;12.008;2023-01-31T15:18:53;0.00;;;0.00;;
48076;SDS011;33854;57.708;12.008;2023-01-31T15:22:32;0.00;;;0.00;;
48076;SDS011;33854;57.708;12.008;2023-01-31T15:24:33;0.00;;;0.00;;
48076;SDS011;33854;57.708;12.008;2023-01-31T15:27:03;0.00;;;0.00;;
48076;SDS011;33854;57.708;12.008;2023-01-31T15:32:26;0.00;;;0.00;;
48076;SDS011;33854;57.708;12.008;2023-01-31T15:35:06;0.00;;;0.00;;
48076;SDS011;33854;57.708;12.008;2023-01-31T15:37:39;0.00;;;0.00;;
48076;SDS011;33854;57.708;12.008;2023-01-31T15:42:43;0.00;;;0.00;;
48076;SDS011;33854;57.708;12.008;2023-01-31T15:45:22;0.00;;;0.00;;
48076;SDS011;33854;57.708;12.008;2023-01-31T15:47:58;0.00;;;0.00;;
48076;SDS011;33854;57.708;12.008;2023-01-31T15:50:26;0.00;;;0.00;;
48076;SDS011;33854;57.708;12.008;2023-01-31T15:52:54;0.00;;;0.00;;
48076;SDS011;33854;57.708;12.008;2023-01-31T15:55:20;0.00;;;0.00;;
48076;SDS011;33854;57.708;12.008;2023-01-31T16:00:36;0.00;;;0.00;;
48076;SDS011;33854;57.708;12.008;2023-01-31T16:03:03;0.00;;;0.00;;
48076;SDS011;33854;57.708;12.008;2023-01-31T16:05:35;0.00;;;0.00;;
48076;SDS011;33854;57.708;12.008;2023-01-31T16:08:03;0.00;;;0.00;;
48076;SDS011;33854;57.708;12.008;2023-01-31T16:10:47;0.00;;;0.00;;
48076;SDS011;33854;57.708;12.008;2023-01-31T16:13:14;0.00;;;0.00;;
48076;SDS011;33854;57.708;12.008;2023-01-31T16:15:40;0.00;;;0.00;;
48076;SDS011;33854;57.708;12.008;2023-01-31T16:18:08;0.00;;;0.00;;
48076;SDS011;33854;57.708;12.008;2023-01-31T16:23:04;0.00;;;0.00;;
48076;SDS011;33854;57.708;12.008;2023-01-31T16:25:32;0.00;;;0.00;;
48076;SDS011;33854;57.708;12.008;2023-01-31T16:28:03;0.00;;;0.00;;
48076;SDS011;33854;57.708;12.008;2023-01-31T16:30:31;0.00;;;0.00;;
48076;SDS011;33854;57.708;12.008;2023-01-31T16:32:58;1.55;;;1.45;;
48076;SDS011;33854;57.708;12.008;2023-01-31T16:35:25;0.00;;;0.00;;
48076;SDS011;33854;57.708;12.008;2023-01-31T16:38:00;0.00;;;0.00;;
48076;SDS011;33854;57.708;12.008;2023-01-31T16:40:35;0.00;;;0.00;;
48076;SDS011;33854;57.708;12.008;2023-01-31T16:45:35;19.25;;;2.13;;
48076;SDS011;33854;57.708;12.008;2023-01-31T16:51:38;16.73;;;2.30;;
48076;SDS011;33854;57.708;12.008;2023-01-31T16:54:17;19.90;;;2.70;;
48076;SDS011;33854;57.708;12.008;2023-01-31T17:02:09;20.52;;;2.38;;
48076;SDS011;33854;57.708;12.008;2023-01-31T17:04:45;21.35;;;3.13;;
48076;SDS011;33854;57.708;12.008;2023-01-31T17:09:44;29.38;;;3.05;;
48076;SDS011;33854;57.708;12.008;2023-01-31T17:12:44;20.63;;;2.42;;
48076;SDS011;33854;57.708;12.008;2023-01-31T17:15:13;21.95;;;2.83;;
48076;SDS011;33854;57.708;12.008;2023-01-31T17:17:41;22.25;;;2.53;;
48076;SDS011;33854;57.708;12.008;2023-01-31T17:20:06;23.07;;;2.87;;
48076;SDS011;33854;57.708;12.008;2023-01-31T17:22:33;25.92;;;2.97;;
48076;SDS011;33854;57.708;12.008;2023-01-31T17:24:58;23.43;;;3.07;;
48076;SDS011;33854;57.708;12.008;2023-01-31T17:27:24;21.40;;;2.70;;
48076;SDS011;33854;57.708;12.008;2023-01-31T17:29:49;20.83;;;2.67;;
48076;SDS011;33854;57.708;12.008;2023-01-31T17:32:16;14.80;;;2.00;;
48076;SDS011;33854;57.708;12.008;2023-01-31T17:34:43;19.80;;;2.30;;
48076;SDS011;33854;57.708;12.008;2023-01-31T17:37:10;20.40;;;2.50;;
48076;SDS011;33854;57.708;12.008;2023-01-31T17:39:36;20.67;;;2.63;;
48076;SDS011;33854;57.708;12.008;2023-01-31T17:42:02;19.60;;;2.37;;
48076;SDS011;33854;57.708;12.008;2023-01-31T17:44:28;14.10;;;2.55;;
48076;SDS011;33854;57.708;12.008;2023-01-31T17:46:54;20.03;;;2.57;;
48076;SDS011;33854;57.708;12.008;2023-01-31T17:49:19;11.70;;;1.57;;
48076;SDS011;33854;57.708;12.008;2023-01-31T17:51:45;13.57;;;3.03;;
48076;SDS011;33854;57.708;12.008;2023-01-31T17:54:10;15.80;;;2.40;;
48076;SDS011;33854;57.708;12.008;2023-01-31T17:56:36;20.87;;;1.80;;
48076;SDS011;33854;57.708;12.008;2023-01-31T17:59:02;16.37;;;2.10;;
48076;SDS011;33854;57.708;12.008;2023-01-31T18:01:28;20.77;;;2.95;;
48076;SDS011;33854;57.708;12.008;2023-01-31T18:03:54;19.20;;;2.22;;
48076;SDS011;33854;57.708;12.008;2023-01-31T18:06:21;18.17;;;3.08;;
48076;SDS011;33854;57.708;12.008;2023-01-31T18:08:46;16.47;;;1.87;;
48076;SDS011;33854;57.708;12.008;2023-01-31T18:11:13;16.02;;;1.88;;
48076;SDS011;33854;57.708;12.008;2023-01-31T18:13:41;23.33;;;2.40;;
48076;SDS011;33854;57.708;12.008;2023-01-31T18:16:16;17.70;;;2.17;;
48076;SDS011;33854;57.708;12.008;2023-01-31T18:18:45;18.52;;;2.50;;
48076;SDS011;33854;57.708;12.008;2023-01-31T18:21:11;21.07;;;1.67;;
48076;SDS011;33854;57.708;12.008;2023-01-31T18:23:39;14.85;;;1.70;;